sensor_id;sensor_type;location;lat;lon;timestamp;pressure;altitude;pressure_sealevel;temperature;humidity
11114;BME280;5610;52.154;9.198;2023-06-19T00:01:16;100175.47;;;23.18;73.90
11114;BME280;5610;52.154;9.198;2023-06-19T00:04:01;100177.19;;;23.19;69.94
11114;BME280;5610;52.154;9.198;2023-06-19T00:06:46;100175.56;;;23.24;68.11
11114;BME280;5610;52.154;9.198;2023-06-19T00:09:32;100179.41;;;23.30;67.35
11114;BME280;5610;52.154;9.198;2023-06-19T00:12:17;100174.16;;;23.28;66.79
11114;BME280;5610;52.154;9.198;2023-06-19T00:15:02;100173.78;;;23.32;67.15
11114;BME280;5610;52.154;9.198;2023-06-19T00:17:49;100177.06;;;23.42;66.99
11114;BME280;5610;52.154;9.198;2023-06-19T00:20:34;100170.94;;;23.40;66.04
11114;BME280;5610;52.154;9.198;2023-06-19T00:23:20;100166.75;;;23.37;65.96
11114;BME280;5610;52.154;9.198;2023-06-19T00:26:05;100166.09;;;23.35;65.87
11114;BME280;5610;52.154;9.198;2023-06-19T00:28:50;100160.19;;;23.32;65.96
11114;BME280;5610;52.154;9.198;2023-06-19T00:31:35;100164.31;;;23.27;66.59
11114;BME280;5610;52.154;9.198;2023-06-19T00:34:22;100158.69;;;23.29;66.62
11114;BME280;5610;52.154;9.198;2023-06-19T00:37:08;100157.13;;;23.20;66.96
11114;BME280;5610;52.154;9.198;2023-06-19T00:39:54;100161.97;;;23.24;67.43
11114;BME280;5610;52.154;9.198;2023-06-19T00:42:39;100150.84;;;23.19;67.93
11114;BME280;5610;52.154;9.198;2023-06-19T00:45:25;100148.28;;;23.18;68.39
11114;BME280;5610;52.154;9.198;2023-06-19T00:48:11;100146.25;;;23.20;69.73
11114;BME280;5610;52.154;9.198;2023-06-19T00:50:57;100154.94;;;23.15;69.15
11114;BME280;5610;52.154;9.198;2023-06-19T00:53:43;100158.06;;;23.12;68.63
11114;BME280;5610;52.154;9.198;2023-06-19T00:56:28;100157.13;;;23.05;69.44
11114;BME280;5610;52.154;9.198;2023-06-19T00:59:17;100155.16;;;22.99;69.28
11114;BME280;5610;52.154;9.198;2023-06-19T01:02:03;100155.31;;;22.97;69.84
11114;BME280;5610;52.154;9.198;2023-06-19T01:04:49;100146.22;;;22.90;76.72
11114;BME280;5610;52.154;9.198;2023-06-19T01:07:43;100149.00;;;22.82;80.46
11114;BME280;5610;52.154;9.198;2023-06-19T01:10:33;100154.69;;;22.72;84.95
11114;BME280;5610;52.154;9.198;2023-06-19T01:13:25;100137.66;;;22.64;86.63
11114;BME280;5610;52.154;9.198;2023-06-19T01:16:12;100142.13;;;22.57;86.79
11114;BME280;5610;52.154;9.198;2023-06-19T01:18:58;100142.38;;;22.47;88.68
11114;BME280;5610;52.154;9.198;2023-06-19T01:21:44;100133.13;;;22.41;88.57
11114;BME280;5610;52.154;9.198;2023-06-19T01:24:31;100134.88;;;22.34;90.13
11114;BME280;5610;52.154;9.198;2023-06-19T01:27:19;100114.94;;;22.27;91.90
11114;BME280;5610;52.154;9.198;2023-06-19T01:30:05;100120.25;;;22.20;92.23
11114;BME280;5610;52.154;9.198;2023-06-19T01:32:54;100120.28;;;22.12;90.48
11114;BME280;5610;52.154;9.198;2023-06-19T01:35:43;100117.94;;;22.09;92.16
11114;BME280;5610;52.154;9.198;2023-06-19T01:38:29;100113.84;;;22.05;91.39
11114;BME280;5610;52.154;9.198;2023-06-19T01:41:17;100103.00;;;22.05;93.25
11114;BME280;5610;52.154;9.198;2023-06-19T01:44:05;100105.72;;;22.05;89.52
11114;BME280;5610;52.154;9.198;2023-06-19T01:46:51;100111.00;;;22.07;92.56
11114;BME280;5610;52.154;9.198;2023-06-19T01:49:37;100119.66;;;22.02;91.00
11114;BME280;5610;52.154;9.198;2023-06-19T01:52:23;100110.50;;;22.03;93.38
11114;BME280;5610;52.154;9.198;2023-06-19T01:55:08;100109.13;;;22.07;93.68
11114;BME280;5610;52.154;9.198;2023-06-19T01:57:56;100103.84;;;22.06;90.61
11114;BME280;5610;52.154;9.198;2023-06-19T02:00:41;100104.72;;;22.06;87.76
11114;BME280;5610;52.154;9.198;2023-06-19T02:03:27;100107.09;;;22.09;83.59
11114;BME280;5610;52.154;9.198;2023-06-19T02:06:12;100105.72;;;22.13;82.10
11114;BME280;5610;52.154;9.198;2023-06-19T02:08:57;100104.69;;;22.14;79.90
11114;BME280;5610;52.154;9.198;2023-06-19T02:11:43;100103.13;;;22.20;76.23
11114;BME280;5610;52.154;9.198;2023-06-19T02:14:29;100102.66;;;22.31;76.57
11114;BME280;5610;52.154;9.198;2023-06-19T02:17:14;100104.44;;;22.39;78.60
11114;BME280;5610;52.154;9.198;2023-06-19T02:20:00;100097.63;;;22.43;81.22
11114;BME280;5610;52.154;9.198;2023-06-19T02:22:45;100096.78;;;22.42;81.55
11114;BME280;5610;52.154;9.198;2023-06-19T02:25:30;100099.50;;;22.42;83.18
11114;BME280;5610;52.154;9.198;2023-06-19T02:28:15;100097.63;;;22.43;81.77
11114;BME280;5610;52.154;9.198;2023-06-19T02:31:02;100095.13;;;22.41;82.93
11114;BME280;5610;52.154;9.198;2023-06-19T02:33:47;100093.59;;;22.39;83.21
11114;BME280;5610;52.154;9.198;2023-06-19T02:36:32;100094.81;;;22.36;83.27
11114;BME280;5610;52.154;9.198;2023-06-19T02:39:21;100091.59;;;22.33;82.59
11114;BME280;5610;52.154;9.198;2023-06-19T02:42:07;100099.09;;;22.31;81.30
11114;BME280;5610;52.154;9.198;2023-06-19T02:44:52;100095.34;;;22.32;81.99
11114;BME280;5610;52.154;9.198;2023-06-19T02:47:39;100088.06;;;22.32;81.92
11114;BME280;5610;52.154;9.198;2023-06-19T02:50:24;100101.63;;;22.32;81.59
11114;BME280;5610;52.154;9.198;2023-06-19T02:53:09;100100.25;;;22.36;78.50
11114;BME280;5610;52.154;9.198;2023-06-19T02:55:54;100098.56;;;22.35;76.46
11114;BME280;5610;52.154;9.198;2023-06-19T02:58:40;100103.81;;;22.37;77.51
11114;BME280;5610;52.154;9.198;2023-06-19T03:01:26;100108.09;;;22.31;77.89
11114;BME280;5610;52.154;9.198;2023-06-19T03:04:12;100105.47;;;22.38;77.11
11114;BME280;5610;52.154;9.198;2023-06-19T03:06:58;100112.91;;;22.44;78.23
11114;BME280;5610;52.154;9.198;2023-06-19T03:09:43;100113.19;;;22.49;79.43
11114;BME280;5610;52.154;9.198;2023-06-19T03:12:28;100115.16;;;22.55;79.00
11114;BME280;5610;52.154;9.198;2023-06-19T03:15:14;100115.81;;;22.57;78.71
11114;BME280;5610;52.154;9.198;2023-06-19T03:18:03;100117.31;;;22.60;78.32
11114;BME280;5610;52.154;9.198;2023-06-19T03:20:53;100112.53;;;22.62;81.13
11114;BME280;5610;52.154;9.198;2023-06-19T03:23:39;100120.88;;;22.60;78.23
11114;BME280;5610;52.154;9.198;2023-06-19T03:26:26;100119.84;;;22.61;80.99
11114;BME280;5610;52.154;9.198;2023-06-19T03:29:14;100115.09;;;22.63;83.06
11114;BME280;5610;52.154;9.198;2023-06-19T03:32:13;100108.81;;;22.63;84.71
11114;BME280;5610;52.154;9.198;2023-06-19T03:34:58;100110.00;;;22.60;85.07
11114;BME280;5610;52.154;9.198;2023-06-19T03:37:46;100109.16;;;22.60;88.46
11114;BME280;5610;52.154;9.198;2023-06-19T03:40:31;100106.53;;;22.52;83.53
11114;BME280;5610;52.154;9.198;2023-06-19T03:43:21;100112.25;;;22.42;83.70
11114;BME280;5610;52.154;9.198;2023-06-19T03:46:06;100114.94;;;22.27;86.03
11114;BME280;5610;52.154;9.198;2023-06-19T03:48:51;100115.66;;;22.21;88.32
11114;BME280;5610;52.154;9.198;2023-06-19T03:51:38;100127.22;;;22.15;88.44
11114;BME280;5610;52.154;9.198;2023-06-19T03:54:26;100131.66;;;22.08;89.35
11114;BME280;5610;52.154;9.198;2023-06-19T03:57:11;100135.91;;;22.10;90.51
11114;BME280;5610;52.154;9.198;2023-06-19T03:59:57;100127.41;;;22.13;90.64
11114;BME280;5610;52.154;9.198;2023-06-19T04:02:43;100119.22;;;22.22;100.00
11114;BME280;5610;52.154;9.198;2023-06-19T04:05:30;100114.25;;;22.25;100.00
11114;BME280;5610;52.154;9.198;2023-06-19T04:08:15;100114.44;;;22.24;100.00
11114;BME280;5610;52.154;9.198;2023-06-19T04:11:02;100115.81;;;22.19;100.00
11114;BME280;5610;52.154;9.198;2023-06-19T04:13:48;100126.09;;;22.09;100.00
11114;BME280;5610;52.154;9.198;2023-06-19T04:16:33;100129.28;;;22.05;100.00
11114;BME280;5610;52.154;9.198;2023-06-19T04:19:18;100117.59;;;22.04;100.00
11114;BME280;5610;52.154;9.198;2023-06-19T04:22:03;100129.16;;;21.98;98.20
11114;BME280;5610;52.154;9.198;2023-06-19T04:24:49;100129.66;;;22.02;97.81
11114;BME280;5610;52.154;9.198;2023-06-19T04:27:36;100130.19;;;21.97;100.00
11114;BME280;5610;52.154;9.198;2023-06-19T04:30:21;100130.84;;;21.76;100.00
11114;BME280;5610;52.154;9.198;2023-06-19T04:33:07;100130.91;;;21.68;100.00
11114;BME280;5610;52.154;9.198;2023-06-19T04:35:52;100129.88;;;21.69;100.00
11114;BME280;5610;52.154;9.198;2023-06-19T04:38:38;100128.50;;;21.73;100.00
11114;BME280;5610;52.154;9.198;2023-06-19T04:41:23;100140.31;;;21.80;100.00
11114;BME280;5610;52.154;9.198;2023-06-19T04:44:09;100130.56;;;21.94;100.00
11114;BME280;5610;52.154;9.198;2023-06-19T04:46:55;100135.06;;;22.10;100.00
11114;BME280;5610;52.154;9.198;2023-06-19T04:49:44;100146.34;;;22.22;100.00
11114;BME280;5610;52.154;9.198;2023-06-19T04:52:30;100139.75;;;22.39;100.00
11114;BME280;5610;52.154;9.198;2023-06-19T04:55:17;100152.81;;;22.58;100.00
11114;BME280;5610;52.154;9.198;2023-06-19T04:58:02;100141.03;;;22.66;93.46
11114;BME280;5610;52.154;9.198;2023-06-19T05:00:49;100148.84;;;22.84;94.31
11114;BME280;5610;52.154;9.198;2023-06-19T05:03:35;100146.59;;;23.02;99.28
11114;BME280;5610;52.154;9.198;2023-06-19T05:06:20;100140.72;;;23.13;99.35
11114;BME280;5610;52.154;9.198;2023-06-19T05:09:05;100138.44;;;23.17;100.00
11114;BME280;5610;52.154;9.198;2023-06-19T05:11:51;100142.19;;;23.16;100.00
11114;BME280;5610;52.154;9.198;2023-06-19T05:14:36;100145.47;;;23.11;100.00
11114;BME280;5610;52.154;9.198;2023-06-19T05:17:22;100139.97;;;23.05;100.00
11114;BME280;5610;52.154;9.198;2023-06-19T05:20:09;100145.97;;;23.00;99.66
11114;BME280;5610;52.154;9.198;2023-06-19T05:22:55;100155.31;;;22.97;100.00
11114;BME280;5610;52.154;9.198;2023-06-19T05:25:40;100164.03;;;22.93;94.49
11114;BME280;5610;52.154;9.198;2023-06-19T05:28:27;100165.63;;;22.87;96.92
11114;BME280;5610;52.154;9.198;2023-06-19T05:31:13;100167.78;;;22.92;97.41
11114;BME280;5610;52.154;9.198;2023-06-19T05:33:59;100168.88;;;22.97;100.00
11114;BME280;5610;52.154;9.198;2023-06-19T05:36:44;100175.00;;;22.99;100.00
11114;BME280;5610;52.154;9.198;2023-06-19T05:39:31;100171.25;;;23.00;100.00
11114;BME280;5610;52.154;9.198;2023-06-19T05:42:16;100174.91;;;23.08;100.00
11114;BME280;5610;52.154;9.198;2023-06-19T05:45:01;100166.09;;;23.20;100.00
11114;BME280;5610;52.154;9.198;2023-06-19T05:47:47;100173.03;;;23.38;100.00
11114;BME280;5610;52.154;9.198;2023-06-19T05:50:33;100170.88;;;23.48;100.00
11114;BME280;5610;52.154;9.198;2023-06-19T05:53:18;100179.47;;;23.66;97.54
11114;BME280;5610;52.154;9.198;2023-06-19T05:56:03;100178.53;;;23.74;95.80
11114;BME280;5610;52.154;9.198;2023-06-19T05:58:49;100184.16;;;23.72;98.36
11114;BME280;5610;52.154;9.198;2023-06-19T06:01:35;100186.13;;;23.78;100.00
11114;BME280;5610;52.154;9.198;2023-06-19T06:04:20;100185.28;;;23.78;100.00
11114;BME280;5610;52.154;9.198;2023-06-19T06:07:08;100191.75;;;23.77;100.00
11114;BME280;5610;52.154;9.198;2023-06-19T06:09:53;100192.41;;;23.79;100.00
11114;BME280;5610;52.154;9.198;2023-06-19T06:12:38;100197.28;;;23.83;100.00
11114;BME280;5610;52.154;9.198;2023-06-19T06:15:23;100203.19;;;23.87;100.00
11114;BME280;5610;52.154;9.198;2023-06-19T06:18:08;100196.41;;;23.98;100.00
11114;BME280;5610;52.154;9.198;2023-06-19T06:20:53;100202.84;;;24.11;100.00
11114;BME280;5610;52.154;9.198;2023-06-19T06:23:41;100207.75;;;24.23;100.00
11114;BME280;5610;52.154;9.198;2023-06-19T06:26:28;100197.03;;;24.36;100.00
11114;BME280;5610;52.154;9.198;2023-06-19T06:29:14;100204.88;;;24.46;79.94
11114;BME280;5610;52.154;9.198;2023-06-19T06:32:03;100207.78;;;24.65;76.58
11114;BME280;5610;52.154;9.198;2023-06-19T06:34:48;100210.91;;;24.90;73.48
11114;BME280;5610;52.154;9.198;2023-06-19T06:37:34;100215.72;;;25.10;76.14
11114;BME280;5610;52.154;9.198;2023-06-19T06:40:20;100224.66;;;25.32;72.83
11114;BME280;5610;52.154;9.198;2023-06-19T06:43:06;100220.72;;;25.41;72.70
11114;BME280;5610;52.154;9.198;2023-06-19T06:45:51;100228.06;;;25.40;71.61
11114;BME280;5610;52.154;9.198;2023-06-19T06:48:36;100212.41;;;25.56;74.12
11114;BME280;5610;52.154;9.198;2023-06-19T06:51:21;100218.44;;;25.51;72.65
11114;BME280;5610;52.154;9.198;2023-06-19T06:54:07;100228.97;;;25.54;74.10
11114;BME280;5610;52.154;9.198;2023-06-19T06:56:53;100230.59;;;25.42;73.66
11114;BME280;5610;52.154;9.198;2023-06-19T06:59:40;100238.63;;;25.57;75.07
11114;BME280;5610;52.154;9.198;2023-06-19T07:02:25;100239.94;;;25.61;76.05
11114;BME280;5610;52.154;9.198;2023-06-19T07:05:10;100238.78;;;25.77;76.26
11114;BME280;5610;52.154;9.198;2023-06-19T07:07:56;100233.75;;;25.80;73.96
11114;BME280;5610;52.154;9.198;2023-06-19T07:10:41;100236.56;;;26.07;75.01
11114;BME280;5610;52.154;9.198;2023-06-19T07:13:28;100235.41;;;26.29;74.93
11114;BME280;5610;52.154;9.198;2023-06-19T07:16:13;100243.00;;;26.40;73.88
11114;BME280;5610;52.154;9.198;2023-06-19T07:18:58;100244.59;;;26.28;73.73
11114;BME280;5610;52.154;9.198;2023-06-19T07:21:43;100245.44;;;26.28;71.96
11114;BME280;5610;52.154;9.198;2023-06-19T07:24:29;100246.72;;;26.33;70.49
11114;BME280;5610;52.154;9.198;2023-06-19T07:27:14;100246.13;;;26.37;72.46
11114;BME280;5610;52.154;9.198;2023-06-19T07:30:01;100244.09;;;26.59;73.26
11114;BME280;5610;52.154;9.198;2023-06-19T07:32:46;100246.63;;;26.74;72.38
11114;BME280;5610;52.154;9.198;2023-06-19T07:35:31;100252.50;;;26.91;72.91
11114;BME280;5610;52.154;9.198;2023-06-19T07:38:16;100246.84;;;27.05;70.86
11114;BME280;5610;52.154;9.198;2023-06-19T07:41:01;100243.91;;;27.14;72.00
11114;BME280;5610;52.154;9.198;2023-06-19T07:43:46;100246.41;;;27.28;69.48
11114;BME280;5610;52.154;9.198;2023-06-19T07:46:33;100248.69;;;27.45;69.24
11114;BME280;5610;52.154;9.198;2023-06-19T07:49:19;100247.81;;;27.57;67.82
11114;BME280;5610;52.154;9.198;2023-06-19T07:52:05;100245.47;;;27.61;68.57
11114;BME280;5610;52.154;9.198;2023-06-19T07:54:51;100250.97;;;27.68;68.76
11114;BME280;5610;52.154;9.198;2023-06-19T07:57:37;100251.72;;;27.88;68.07
11114;BME280;5610;52.154;9.198;2023-06-19T08:00:22;100252.59;;;27.82;64.96
11114;BME280;5610;52.154;9.198;2023-06-19T08:03:09;100262.34;;;28.16;67.41
11114;BME280;5610;52.154;9.198;2023-06-19T08:05:54;100256.94;;;28.03;64.42
11114;BME280;5610;52.154;9.198;2023-06-19T08:08:40;100256.97;;;28.41;66.55
11114;BME280;5610;52.154;9.198;2023-06-19T08:11:25;100265.84;;;28.68;65.76
11114;BME280;5610;52.154;9.198;2023-06-19T08:14:10;100266.44;;;28.77;61.45
11114;BME280;5610;52.154;9.198;2023-06-19T08:16:55;100270.69;;;28.41;61.79
11114;BME280;5610;52.154;9.198;2023-06-19T08:19:41;100271.13;;;28.31;64.75
11114;BME280;5610;52.154;9.198;2023-06-19T08:22:27;100272.94;;;28.51;64.04
11114;BME280;5610;52.154;9.198;2023-06-19T08:25:12;100275.59;;;28.89;62.65
11114;BME280;5610;52.154;9.198;2023-06-19T08:27:58;100266.50;;;28.95;59.36
11114;BME280;5610;52.154;9.198;2023-06-19T08:30:44;100270.97;;;29.39;60.78
11114;BME280;5610;52.154;9.198;2023-06-19T08:33:29;100272.38;;;29.67;60.07
11114;BME280;5610;52.154;9.198;2023-06-19T08:36:16;100283.22;;;29.18;60.25
11114;BME280;5610;52.154;9.198;2023-06-19T08:39:01;100290.31;;;29.01;60.25
11114;BME280;5610;52.154;9.198;2023-06-19T08:41:46;100286.63;;;28.82;59.29
11114;BME280;5610;52.154;9.198;2023-06-19T08:44:33;100279.84;;;28.91;60.07
11114;BME280;5610;52.154;9.198;2023-06-19T08:47:18;100281.72;;;29.41;58.12
11114;BME280;5610;52.154;9.198;2023-06-19T08:50:04;100292.81;;;29.27;57.72
11114;BME280;5610;52.154;9.198;2023-06-19T08:52:51;100297.84;;;29.56;57.11
11114;BME280;5610;52.154;9.198;2023-06-19T08:55:36;100288.09;;;29.60;55.52
11114;BME280;5610;52.154;9.198;2023-06-19T08:58:22;100292.16;;;29.75;56.81
11114;BME280;5610;52.154;9.198;2023-06-19T09:01:07;100291.31;;;29.75;59.27
11114;BME280;5610;52.154;9.198;2023-06-19T09:03:53;100302.22;;;29.81;57.82
11114;BME280;5610;52.154;9.198;2023-06-19T09:06:49;100300.84;;;29.91;57.55
11114;BME280;5610;52.154;9.198;2023-06-19T09:09:36;100309.56;;;30.54;57.40
11114;BME280;5610;52.154;9.198;2023-06-19T09:12:21;100307.81;;;31.02;53.88
11114;BME280;5610;52.154;9.198;2023-06-19T09:15:14;100325.22;;;31.26;54.08
11114;BME280;5610;52.154;9.198;2023-06-19T09:18:04;100317.66;;;30.79;54.57
11114;BME280;5610;52.154;9.198;2023-06-19T09:20:52;100315.53;;;30.81;54.28
11114;BME280;5610;52.154;9.198;2023-06-19T09:23:39;100325.78;;;31.16;52.21
11114;BME280;5610;52.154;9.198;2023-06-19T09:26:26;100329.66;;;30.85;54.22
11114;BME280;5610;52.154;9.198;2023-06-19T09:29:12;100333.16;;;30.44;54.43
11114;BME280;5610;52.154;9.198;2023-06-19T09:31:59;100333.38;;;30.90;54.60
11114;BME280;5610;52.154;9.198;2023-06-19T09:34:44;100334.25;;;30.73;52.87
11114;BME280;5610;52.154;9.198;2023-06-19T09:37:30;100339.09;;;31.31;52.68
11114;BME280;5610;52.154;9.198;2023-06-19T09:40:16;100336.72;;;31.81;52.61
11114;BME280;5610;52.154;9.198;2023-06-19T09:43:04;100327.94;;;32.08;52.37
11114;BME280;5610;52.154;9.198;2023-06-19T09:45:55;100337.06;;;31.26;51.08
11114;BME280;5610;52.154;9.198;2023-06-19T09:48:43;100339.56;;;31.75;55.09
11114;BME280;5610;52.154;9.198;2023-06-19T09:51:30;100337.31;;;31.36;51.79
11114;BME280;5610;52.154;9.198;2023-06-19T09:54:17;100344.28;;;30.97;52.39
11114;BME280;5610;52.154;9.198;2023-06-19T09:57:06;100340.91;;;30.35;53.03
11114;BME280;5610;52.154;9.198;2023-06-19T09:59:55;100342.56;;;30.36;53.67
11114;BME280;5610;52.154;9.198;2023-06-19T10:02:42;100342.22;;;30.62;53.65
11114;BME280;5610;52.154;9.198;2023-06-19T10:05:28;100348.34;;;31.36;52.06
11114;BME280;5610;52.154;9.198;2023-06-19T10:08:26;100340.72;;;32.14;51.70
11114;BME280;5610;52.154;9.198;2023-06-19T10:11:12;100343.41;;;31.85;49.82
11114;BME280;5610;52.154;9.198;2023-06-19T10:14:05;100335.97;;;31.27;51.64
11114;BME280;5610;52.154;9.198;2023-06-19T10:16:52;100343.41;;;31.62;49.89
11114;BME280;5610;52.154;9.198;2023-06-19T10:19:37;100338.97;;;32.08;49.63
11114;BME280;5610;52.154;9.198;2023-06-19T10:22:22;100342.19;;;32.57;49.14
11114;BME280;5610;52.154;9.198;2023-06-19T10:25:07;100334.59;;;32.92;48.12
11114;BME280;5610;52.154;9.198;2023-06-19T10:27:53;100338.38;;;33.53;46.46
11114;BME280;5610;52.154;9.198;2023-06-19T10:30:38;100339.63;;;33.29;45.83
11114;BME280;5610;52.154;9.198;2023-06-19T10:33:26;100336.13;;;33.50;47.58
11114;BME280;5610;52.154;9.198;2023-06-19T10:36:14;100333.53;;;33.44;44.86
11114;BME280;5610;52.154;9.198;2023-06-19T10:39:00;100337.34;;;33.76;45.42
11114;BME280;5610;52.154;9.198;2023-06-19T10:41:45;100340.28;;;34.08;44.29
11114;BME280;5610;52.154;9.198;2023-06-19T10:44:30;100341.59;;;33.84;45.14
11114;BME280;5610;52.154;9.198;2023-06-19T10:47:15;100339.44;;;33.19;45.41
11114;BME280;5610;52.154;9.198;2023-06-19T10:50:03;100341.00;;;32.52;45.95
11114;BME280;5610;52.154;9.198;2023-06-19T10:52:52;100341.09;;;32.06;47.37
11114;BME280;5610;52.154;9.198;2023-06-19T10:55:39;100348.41;;;32.35;46.56
11114;BME280;5610;52.154;9.198;2023-06-19T10:58:24;100354.19;;;32.79;46.14
11114;BME280;5610;52.154;9.198;2023-06-19T11:01:10;100349.88;;;33.62;44.60
11114;BME280;5610;52.154;9.198;2023-06-19T11:03:55;100347.44;;;33.49;44.05
11114;BME280;5610;52.154;9.198;2023-06-19T11:06:43;100342.22;;;34.52;43.05
11114;BME280;5610;52.154;9.198;2023-06-19T11:09:30;100357.72;;;36.13;39.98
11114;BME280;5610;52.154;9.198;2023-06-19T11:12:19;100347.22;;;38.39;37.88
11114;BME280;5610;52.154;9.198;2023-06-19T11:15:05;100345.13;;;38.70;36.50
11114;BME280;5610;52.154;9.198;2023-06-19T11:17:51;100362.22;;;37.38;37.64
11114;BME280;5610;52.154;9.198;2023-06-19T11:20:43;100379.38;;;36.16;38.75
11114;BME280;5610;52.154;9.198;2023-06-19T11:23:30;100367.94;;;35.65;40.13
11114;BME280;5610;52.154;9.198;2023-06-19T11:26:15;100356.34;;;37.65;38.30
11114;BME280;5610;52.154;9.198;2023-06-19T11:29:01;100355.47;;;39.38;36.27
11114;BME280;5610;52.154;9.198;2023-06-19T11:31:48;100354.63;;;39.96;33.94
11114;BME280;5610;52.154;9.198;2023-06-19T11:34:34;100356.22;;;40.02;33.67
11114;BME280;5610;52.154;9.198;2023-06-19T11:37:20;100353.94;;;40.09;34.15
11114;BME280;5610;52.154;9.198;2023-06-19T11:40:08;100354.19;;;41.31;32.33
11114;BME280;5610;52.154;9.198;2023-06-19T11:42:59;100364.38;;;40.65;33.08
11114;BME280;5610;52.154;9.198;2023-06-19T11:45:47;100367.44;;;38.60;35.35
11114;BME280;5610;52.154;9.198;2023-06-19T11:48:36;100371.84;;;38.07;37.10
11114;BME280;5610;52.154;9.198;2023-06-19T11:51:22;100371.22;;;36.62;37.77
11114;BME280;5610;52.154;9.198;2023-06-19T11:54:09;100376.63;;;37.09;38.60
11114;BME280;5610;52.154;9.198;2023-06-19T11:56:56;100366.94;;;38.48;35.85
11114;BME280;5610;52.154;9.198;2023-06-19T11:59:42;100378.19;;;38.28;35.52
11114;BME280;5610;52.154;9.198;2023-06-19T12:02:27;100379.69;;;37.79;36.99
11114;BME280;5610;52.154;9.198;2023-06-19T12:05:13;100380.22;;;37.00;36.95
11114;BME280;5610;52.154;9.198;2023-06-19T12:07:58;100374.31;;;36.71;38.28
11114;BME280;5610;52.154;9.198;2023-06-19T12:10:46;100376.84;;;36.10;39.52
11114;BME280;5610;52.154;9.198;2023-06-19T12:13:32;100380.34;;;36.47;38.50
11114;BME280;5610;52.154;9.198;2023-06-19T12:16:18;100378.56;;;36.99;38.86
11114;BME280;5610;52.154;9.198;2023-06-19T12:19:03;100373.03;;;37.60;36.13
11114;BME280;5610;52.154;9.198;2023-06-19T12:21:48;100376.78;;;38.20;36.05
11114;BME280;5610;52.154;9.198;2023-06-19T12:24:34;100375.41;;;40.56;34.53
11114;BME280;5610;52.154;9.198;2023-06-19T12:27:19;100370.03;;;40.79;31.53
11114;BME280;5610;52.154;9.198;2023-06-19T12:30:07;100372.97;;;38.01;35.62
11114;BME280;5610;52.154;9.198;2023-06-19T12:32:53;100365.25;;;37.57;36.91
11114;BME280;5610;52.154;9.198;2023-06-19T12:35:40;100360.78;;;37.86;36.75
11114;BME280;5610;52.154;9.198;2023-06-19T12:38:25;100358.59;;;40.19;33.98
11114;BME280;5610;52.154;9.198;2023-06-19T12:41:11;100359.31;;;41.70;31.12
11114;BME280;5610;52.154;9.198;2023-06-19T12:43:56;100358.53;;;42.52;32.60
11114;BME280;5610;52.154;9.198;2023-06-19T12:46:43;100370.38;;;43.44;29.71
11114;BME280;5610;52.154;9.198;2023-06-19T12:49:28;100364.56;;;41.90;30.53
11114;BME280;5610;52.154;9.198;2023-06-19T12:52:13;100355.06;;;39.84;32.76
11114;BME280;5610;52.154;9.198;2023-06-19T12:54:58;100368.22;;;39.49;34.47
11114;BME280;5610;52.154;9.198;2023-06-19T12:57:45;100369.00;;;38.82;34.02
11114;BME280;5610;52.154;9.198;2023-06-19T13:00:30;100361.84;;;39.05;34.03
11114;BME280;5610;52.154;9.198;2023-06-19T13:03:16;100364.56;;;38.76;35.04
11114;BME280;5610;52.154;9.198;2023-06-19T13:06:02;100362.06;;;38.79;35.38
11114;BME280;5610;52.154;9.198;2023-06-19T13:08:48;100366.81;;;38.14;35.93
11114;BME280;5610;52.154;9.198;2023-06-19T13:11:33;100382.19;;;37.09;37.73
11114;BME280;5610;52.154;9.198;2023-06-19T13:14:19;100375.69;;;36.06;38.90
11114;BME280;5610;52.154;9.198;2023-06-19T13:17:04;100371.00;;;35.32;39.68
11114;BME280;5610;52.154;9.198;2023-06-19T13:19:51;100364.34;;;35.33;39.75
11114;BME280;5610;52.154;9.198;2023-06-19T13:22:36;100374.13;;;37.18;37.76
11114;BME280;5610;52.154;9.198;2023-06-19T13:25:22;100367.84;;;40.57;33.92
11114;BME280;5610;52.154;9.198;2023-06-19T13:28:06;100358.16;;;43.71;30.92
11114;BME280;5610;52.154;9.198;2023-06-19T13:30:52;100363.16;;;46.08;28.63
11114;BME280;5610;52.154;9.198;2023-06-19T13:33:38;100362.09;;;47.92;27.62
11114;BME280;5610;52.154;9.198;2023-06-19T13:36:24;100360.91;;;49.06;25.32
11114;BME280;5610;52.154;9.198;2023-06-19T13:39:10;100375.16;;;48.97;24.97
11114;BME280;5610;52.154;9.198;2023-06-19T13:41:56;100367.88;;;48.84;25.02
11114;BME280;5610;52.154;9.198;2023-06-19T13:44:41;100365.72;;;48.78;24.47
11114;BME280;5610;52.154;9.198;2023-06-19T13:47:26;100359.81;;;46.73;25.84
11114;BME280;5610;52.154;9.198;2023-06-19T13:50:12;100363.31;;;46.49;27.18
11114;BME280;5610;52.154;9.198;2023-06-19T13:53:03;100365.63;;;44.98;27.12
11114;BME280;5610;52.154;9.198;2023-06-19T13:55:48;100355.75;;;46.03;27.12
11114;BME280;5610;52.154;9.198;2023-06-19T13:58:33;100354.03;;;46.49;26.66
11114;BME280;5610;52.154;9.198;2023-06-19T14:01:19;100340.41;;;44.50;29.08
11114;BME280;5610;52.154;9.198;2023-06-19T14:04:04;100342.38;;;43.30;31.88
11114;BME280;5610;52.154;9.198;2023-06-19T14:06:50;100347.13;;;42.07;31.61
11114;BME280;5610;52.154;9.198;2023-06-19T14:09:37;100356.47;;;41.10;32.60
11114;BME280;5610;52.154;9.198;2023-06-19T14:12:23;100356.41;;;39.63;32.40
11114;BME280;5610;52.154;9.198;2023-06-19T14:15:08;100345.25;;;37.34;35.15
11114;BME280;5610;52.154;9.198;2023-06-19T14:17:53;100362.72;;;37.55;36.50
11114;BME280;5610;52.154;9.198;2023-06-19T14:20:38;100354.66;;;37.74;36.90
11114;BME280;5610;52.154;9.198;2023-06-19T14:23:25;100358.31;;;37.29;37.74
11114;BME280;5610;52.154;9.198;2023-06-19T14:26:11;100367.78;;;35.82;37.14
11114;BME280;5610;52.154;9.198;2023-06-19T14:28:57;100367.34;;;36.53;38.95
11114;BME280;5610;52.154;9.198;2023-06-19T14:31:42;100364.59;;;36.78;38.27
11114;BME280;5610;52.154;9.198;2023-06-19T14:34:28;100361.28;;;36.76;38.17
11114;BME280;5610;52.154;9.198;2023-06-19T14:37:13;100353.50;;;36.73;38.03
11114;BME280;5610;52.154;9.198;2023-06-19T14:39:58;100361.56;;;36.75;39.15